No particular awareness of the weather is required.    There are no Weather-warnings


Meteo18 Weather Cam more information Meteo18 Weather Cam


Thunder radar more information blitzortung!


Rain radar more information rain snow radar


Visit our other weather sites:

Template documentation
and downloads

And another site



Weather Underground History page Text

Daily Summary for February 2, 2017 Units:  English    Metric   Both
« Previous Day
Next Day »
Daily Weekly Monthly Yearly Custom
  High: Low: Average:
Temperature: TemperatureC °F 6.2 °F 9.6 °F
Dew Point: DewpointC °F 4.8 °F 7.4 °F
Humidity: Humidity % 68 % 86 %
Wind Speed: WindSpeedKMH mph 0.0 mph 4.3 mph
Wind Gust: WindSpeedGustKMH mph - -
Wind:- - South
Pressure: PressurehPa in 1004.3 in -
Precipitation: 2.5 in    
Historical Graphs
 
 
Tabular Data for February 2, 2017
Time Temperature Dew Point Pressure Wind Wind Speed Wind Gust Humidity Rainfall Rate (Hourly)
TemperatureC °F DewpointC °F PressurehPa in Calm     Humidity % HourlyPrecipMM in
00:02 7.7 °F 6.5 °F 1012.4 in Calm   1.6 mph 92 % 0.0 in
00:07 7.7 °F 6.5 °F 1012.4 in Calm   1.6 mph 92 % 0.0 in
00:12 7.7 °F 6.5 °F 1012.4 in Calm   1.6 mph 92 % 0.0 in
00:17 7.7 °F 6.6 °F 1012.4 in Calm   1.6 mph 93 % 0.0 in
00:22 7.6 °F 6.4 °F 1012.4 in SW 1.6 mph   92 % 0.0 in
00:27 7.5 °F 6.6 °F 1012.4 in Calm   1.6 mph 94 % 0.0 in
00:32 7.7 °F 6.8 °F 1012.4 in Calm   1.6 mph 94 % 0.0 in
00:37 7.4 °F 6.2 °F 1012.4 in Calm   1.6 mph 92 % 0.0 in
00:42 7.5 °F 6.6 °F 1012.4 in Calm   1.6 mph 94 % 0.0 in
00:47 7.6 °F 6.7 °F 1012.4 in Calm   1.6 mph 94 % 0.0 in
00:52 7.6 °F 6.7 °F 1012.1 in Calm   4.8 mph 94 % 0.0 in
00:57 7.7 °F 6.8 °F 1012.1 in SW 1.6 mph 4.8 mph 94 % 0.0 in
01:02 7.7 °F 6.8 °F 1012.1 in SW 1.6 mph 4.8 mph 94 % 0.0 in
01:07 7.8 °F 6.9 °F 1012.1 in Calm   3.2 mph 94 % 0.0 in
01:12 7.9 °F 7.0 °F 1012.1 in Calm   3.2 mph 94 % 0.0 in
01:17 7.9 °F 7.0 °F 1012.1 in Calm   3.2 mph 94 % 0.0 in
01:22 7.9 °F 7.0 °F 1012.1 in Calm   1.6 mph 94 % 0.0 in
01:27 7.9 °F 6.8 °F 1011.7 in Calm   1.6 mph 93 % 0.0 in
01:32 7.9 °F 6.8 °F 1011.7 in Calm   1.6 mph 93 % 0.0 in
01:37 7.8 °F 6.7 °F 1011.7 in Calm   1.6 mph 93 % 0.0 in
01:42 7.6 °F 6.5 °F 1011.7 in Calm   1.6 mph 93 % 0.0 in
01:47 7.6 °F 6.7 °F 1011.4 in Calm   1.6 mph 94 % 0.0 in
01:52 7.6 °F 6.7 °F 1011.4 in Calm   1.6 mph 94 % 0.0 in
01:57 7.7 °F 6.8 °F 1011.7 in Calm   1.6 mph 94 % 0.0 in
02:02 7.7 °F 6.6 °F 1011.4 in SW 1.6 mph 1.6 mph 93 % 0.0 in
02:07 7.3 °F 6.1 °F 1011.4 in Calm   1.6 mph 92 % 0.0 in
02:12 7.3 °F 6.4 °F 1011.4 in Calm   1.6 mph 94 % 0.0 in
02:17 7.4 °F 6.5 °F 1011.4 in Calm   1.6 mph 94 % 0.0 in
02:22 7.5 °F 6.6 °F 1011.4 in Calm   1.6 mph 94 % 0.0 in
02:32 7.8 °F 6.7 °F 1011.4 in Calm     93 % 0.0 in
02:37 7.8 °F 6.6 °F 1011.1 in Calm   3.2 mph 92 % 0.0 in
02:42 7.8 °F 6.4 °F 1011.1 in Calm   3.2 mph 91 % 0.0 in
02:47 7.6 °F 6.4 °F 1011.1 in Calm   1.6 mph 92 % 0.0 in
02:52 7.6 °F 6.4 °F 1011.1 in Calm     92 % 0.0 in
02:57 7.6 °F 6.4 °F 1011.1 in Calm     92 % 0.0 in
03:02 7.3 °F 5.9 °F 1011.1 in Calm     91 % 0.0 in
03:07 7.4 °F 6.3 °F 1010.7 in Calm     93 % 0.0 in
03:12 7.4 °F 6.2 °F 1010.7 in Calm     92 % 0.0 in
03:17 7.3 °F 6.1 °F 1010.7 in Calm     92 % 0.0 in
03:22 7.2 °F 5.8 °F 1010.7 in Calm     91 % 0.0 in
03:27 7.1 °F 5.7 °F 1010.7 in Calm     91 % 0.0 in
03:32 7.2 °F 6.0 °F 1010.7 in Calm   1.6 mph 92 % 0.0 in
03:37 7.3 °F 5.9 °F 1010.4 in Calm   1.6 mph 91 % 0.0 in
03:42 7.2 °F 5.8 °F 1010.4 in Calm   1.6 mph 91 % 0.0 in
03:47 7.2 °F 5.8 °F 1010.4 in Calm   4.8 mph 91 % 0.0 in
03:52 7.2 °F 5.8 °F 1010.0 in Calm   4.8 mph 91 % 0.0 in
03:57 7.1 °F 5.7 °F 1010.0 in Calm   4.8 mph 91 % 0.0 in
04:02 7.1 °F 5.7 °F 1010.0 in Calm     91 % 0.0 in
04:07 6.9 °F 5.5 °F 1010.0 in Calm     91 % 0.0 in
04:12 7.0 °F 5.6 °F 1010.0 in Calm     91 % 0.0 in
04:17 7.0 °F 5.6 °F 1010.0 in Calm     91 % 0.0 in
04:22 7.0 °F 5.6 °F 1010.0 in Calm     91 % 0.0 in
04:27 7.1 °F 5.7 °F 1009.7 in Calm     91 % 0.0 in
04:32 7.1 °F 5.6 °F 1009.7 in Calm     90 % 0.0 in
04:42 6.9 °F 5.4 °F 1009.7 in Calm     90 % 0.0 in
04:47 6.9 °F 5.4 °F 1009.7 in Calm     90 % 0.0 in
04:52 6.9 °F 5.4 °F 1010.0 in Calm     90 % 0.0 in
04:57 6.8 °F 5.3 °F 1009.7 in Calm     90 % 0.0 in
05:02 6.8 °F 5.4 °F 1009.7 in Calm     91 % 0.0 in
05:07 6.8 °F 5.4 °F 1009.7 in Calm     91 % 0.0 in
05:12 6.9 °F 5.5 °F 1009.7 in Calm     91 % 0.0 in
05:17 7.1 °F 5.6 °F 1009.4 in Calm     90 % 0.0 in
05:22 7.1 °F 5.4 °F 1009.4 in Calm     89 % 0.0 in
05:32 6.9 °F 5.4 °F 1009.4 in Calm     90 % 0.0 in
05:37 6.9 °F 5.4 °F 1009.4 in Calm     90 % 0.0 in
05:42 6.9 °F 5.2 °F 1009.4 in Calm     89 % 0.0 in
05:47 6.6 °F 4.9 °F 1009.4 in Calm     89 % 0.0 in
05:52 6.4 °F 5.0 °F 1009.4 in Calm     91 % 0.0 in
05:57 6.4 °F 5.0 °F 1009.4 in Calm     91 % 0.0 in
06:02 6.4 °F 5.2 °F 1009.4 in NNE 1.6 mph 4.8 mph 92 % 0.0 in
06:07 6.7 °F 5.5 °F 1009.4 in NE 1.6 mph 4.8 mph 92 % 0.0 in
06:12 6.9 °F 5.4 °F 1009.0 in NE 1.6 mph 4.8 mph 90 % 0.0 in
06:17 6.9 °F 5.4 °F 1009.0 in Calm   3.2 mph 90 % 0.0 in
06:22 6.7 °F 5.2 °F 1009.0 in Calm   3.2 mph 90 % 0.0 in
06:27 6.7 °F 5.2 °F 1009.0 in Calm   1.6 mph 90 % 0.0 in
06:32 6.7 °F 5.2 °F 1009.0 in Calm   1.6 mph 90 % 0.0 in
06:37 6.6 °F 5.1 °F 1008.7 in Calm     90 % 0.0 in
06:42 6.6 °F 5.1 °F 1008.7 in Calm     90 % 0.0 in
06:47 6.4 °F 4.9 °F 1008.7 in Calm     90 % 0.0 in
06:57 6.5 °F 5.3 °F 1008.7 in Calm     92 % 0.0 in
07:02 6.6 °F 5.2 °F 1008.7 in Calm     91 % 0.0 in
07:07 6.6 °F 5.2 °F 1008.7 in Calm     91 % 0.0 in
07:12 6.6 °F 5.1 °F 1008.7 in Calm     90 % 0.0 in
07:17 6.4 °F 5.0 °F 1008.7 in Calm     91 % 0.0 in
07:22 6.4 °F 5.0 °F 1008.7 in Calm     91 % 0.0 in
07:27 6.5 °F 5.1 °F 1008.7 in Calm     91 % 0.0 in
07:32 6.6 °F 5.2 °F 1008.7 in Calm     91 % 0.0 in
07:37 6.4 °F 4.9 °F 1008.4 in Calm     90 % 0.0 in
07:42 6.3 °F 4.9 °F 1008.4 in Calm     91 % 0.0 in
07:47 6.4 °F 5.0 °F 1008.4 in Calm     91 % 0.0 in
07:52 6.2 °F 4.8 °F 1008.4 in Calm     91 % 0.0 in
07:57 6.4 °F 5.2 °F 1008.4 in Calm     92 % 0.0 in
08:02 6.5 °F 5.1 °F 1008.4 in Calm     91 % 0.0 in
08:07 6.3 °F 4.8 °F 1008.4 in Calm     90 % 0.0 in
08:12 6.2 °F 4.8 °F 1008.4 in Calm     91 % 0.0 in
08:17 6.3 °F 5.1 °F 1008.4 in Calm     92 % 0.0 in
08:22 6.4 °F 5.2 °F 1008.4 in Calm     92 % 0.0 in
08:27 6.4 °F 5.0 °F 1008.4 in Calm     91 % 0.0 in
08:32 6.4 °F 4.9 °F 1008.4 in Calm     90 % 0.0 in
08:37 6.5 °F 5.3 °F 1008.4 in Calm     92 % 0.0 in
08:42 6.6 °F 5.2 °F 1008.4 in Calm     91 % 0.0 in
08:47 6.6 °F 5.2 °F 1008.4 in Calm     91 % 0.0 in
08:52 6.6 °F 5.2 °F 1008.4 in Calm     91 % 0.0 in
08:57 6.6 °F 5.2 °F 1008.0 in North 1.6 mph 3.2 mph 91 % 0.0 in
09:02 6.6 °F 5.2 °F 1008.0 in North 3.2 mph 3.2 mph 91 % 0.0 in
09:07 6.4 °F 5.0 °F 1008.0 in NE 1.6 mph 3.2 mph 91 % 0.0 in
09:12 6.4 °F 5.0 °F 1008.0 in Calm   3.2 mph 91 % 0.0 in
09:17 6.5 °F 5.1 °F 1008.0 in Calm   3.2 mph 91 % 0.0 in
09:22 6.5 °F 5.1 °F 1008.0 in Calm   3.2 mph 91 % 0.0 in
09:32 7.1 °F 5.4 °F 1008.0 in Calm   1.6 mph 89 % 0.0 in
09:37 6.8 °F 5.0 °F 1008.0 in Calm   1.6 mph 88 % 0.0 in
09:42 6.7 °F 5.3 °F 1007.7 in SE 1.6 mph 6.4 mph 91 % 0.0 in
09:47 7.2 °F 5.7 °F 1008.0 in West 4.8 mph 8.0 mph 90 % 0.0 in
09:52 7.0 °F 5.5 °F 1008.0 in WSW 3.2 mph 12.9 mph 90 % 0.0 in
09:57 7.2 °F 5.7 °F 1007.7 in Calm   12.9 mph 90 % 0.0 in
10:02 7.6 °F 5.9 °F 1008.0 in Calm   8.0 mph 89 % 0.0 in
10:07 7.8 °F 5.9 °F 1007.7 in SSE 1.6 mph 3.2 mph 88 % 0.0 in
10:12 8.1 °F 6.1 °F 1007.7 in Calm   8.0 mph 87 % 0.0 in
10:17 8.2 °F 6.2 °F 1007.7 in Calm   8.0 mph 87 % 0.0 in
10:22 8.3 °F 6.3 °F 1007.7 in Calm   8.0 mph 87 % 0.0 in
10:27 8.4 °F 6.4 °F 1007.7 in SE 3.2 mph 3.2 mph 87 % 0.0 in
10:32 8.6 °F 6.4 °F 1007.3 in Calm   3.2 mph 86 % 0.0 in
10:37 8.7 °F 6.5 °F 1007.3 in Calm   3.2 mph 86 % 0.0 in
10:42 8.8 °F 6.4 °F 1007.3 in Calm   3.2 mph 85 % 0.0 in
10:47 8.9 °F 6.5 °F 1007.3 in Calm   3.2 mph 85 % 0.0 in
10:52 9.1 °F 6.7 °F 1007.3 in Calm   3.2 mph 85 % 0.0 in
10:57 9.2 °F 6.8 °F 1007.3 in Calm   3.2 mph 85 % 0.0 in
11:02 9.3 °F 6.9 °F 1007.3 in Calm   3.2 mph 85 % 0.0 in
11:07 9.5 °F 7.1 °F 1007.3 in Calm   1.6 mph 85 % 0.0 in
11:12 9.7 °F 7.1 °F 1007.3 in ESE 3.2 mph 3.2 mph 84 % 0.0 in
11:17 9.9 °F 7.3 °F 1007.0 in SSE 6.4 mph 6.4 mph 84 % 0.0 in
11:22 10.2 °F 7.4 °F 1007.0 in SE 4.8 mph 11.3 mph 83 % 0.0 in
11:32 10.4 °F 7.5 °F 1006.7 in SSE 3.2 mph 12.9 mph 82 % 0.0 in
11:42 10.8 °F 7.9 °F 1006.7 in SSE 3.2 mph 12.9 mph 82 % 0.0 in
11:47 10.9 °F 7.8 °F 1006.7 in South 1.6 mph 9.7 mph 81 % 0.0 in
11:52 11.1 °F 8.0 °F 1006.7 in SSE 6.4 mph 9.7 mph 81 % 0.0 in
11:57 11.3 °F 8.2 °F 1006.7 in SE 1.6 mph 12.9 mph 81 % 0.0 in
12:02 11.4 °F 8.3 °F 1006.7 in SSE 4.8 mph 12.9 mph 81 % 0.0 in
12:07 11.4 °F 7.9 °F 1006.7 in SE 6.4 mph 12.9 mph 79 % 0.0 in
12:12 11.6 °F 8.1 °F 1006.3 in SE 3.2 mph 14.5 mph 79 % 0.0 in
12:17 11.6 °F 8.1 °F 1006.3 in SSE 4.8 mph 14.5 mph 79 % 0.0 in
12:22 11.6 °F 8.5 °F 1006.3 in ESE 3.2 mph 14.5 mph 81 % 0.0 in
12:27 11.7 °F 8.2 °F 1006.0 in SSE 1.6 mph 14.5 mph 79 % 0.0 in
12:32 11.8 °F 8.5 °F 1006.0 in ESE 9.7 mph 11.3 mph 80 % 0.0 in
12:37 11.8 °F 8.3 °F 1005.6 in SE 6.4 mph 16.1 mph 79 % 0.0 in
12:42 12.0 °F 8.7 °F 1005.6 in ESE 4.8 mph 16.1 mph 80 % 0.0 in
12:47 12.1 °F 8.6 °F 1005.6 in SE 3.2 mph 16.1 mph 79 % 0.0 in
12:52 12.3 °F 8.8 °F 1005.6 in SE 4.8 mph 11.3 mph 79 % 0.0 in
12:57 12.5 °F 9.0 °F 1005.3 in SE 8.0 mph 11.3 mph 79 % 0.0 in
13:02 12.6 °F 8.7 °F 1005.3 in SE 6.4 mph 11.3 mph 77 % 0.0 in
13:07 12.8 °F 8.9 °F 1005.3 in SE 4.8 mph 11.3 mph 77 % 0.0 in
13:12 13.1 °F 9.2 °F 1005.3 in SSW 9.7 mph 11.3 mph 77 % 0.0 in
13:17 13.6 °F 9.1 °F 1005.3 in SSE 11.3 mph 11.3 mph 74 % 0.0 in
13:22 13.9 °F 9.5 °F 1005.3 in SE 6.4 mph 22.5 mph 75 % 0.0 in
13:27 14.2 °F 9.2 °F 1005.3 in South 11.3 mph 22.5 mph 72 % 0.0 in
13:32 14.6 °F 9.8 °F 1005.0 in SSE 8.0 mph 22.5 mph 73 % 0.0 in
13:37 15.1 °F 9.7 °F 1005.0 in SSW 11.3 mph 19.3 mph 70 % 0.0 in
13:42 15.2 °F 9.5 °F 1005.0 in SE 16.1 mph 20.9 mph 69 % 0.0 in
13:47 15.2 °F 9.5 °F 1005.0 in SSW 19.3 mph 22.5 mph 69 % 0.0 in
13:52 15.2 °F 9.8 °F 1005.0 in South 8.0 mph 25.7 mph 70 % 0.0 in
13:57 15.2 °F 9.5 °F 1004.6 in SE 6.4 mph 25.7 mph 69 % 0.0 in
14:02 15.3 °F 9.4 °F 1004.6 in South 6.4 mph 25.7 mph 68 % 0.0 in
14:07 15.3 °F 9.6 °F 1004.6 in SSE 9.7 mph 19.3 mph 69 % 0.0 in
14:12 15.4 °F 9.7 °F 1004.6 in SSE 6.4 mph 19.3 mph 69 % 0.0 in
14:17 15.3 °F 9.4 °F 1004.6 in SSE 6.4 mph 19.3 mph 68 % 0.0 in
14:22 15.2 °F 9.5 °F 1004.6 in SSE 3.2 mph 17.7 mph 69 % 0.0 in
14:27 15.2 °F 10.0 °F 1004.6 in South 6.4 mph 17.7 mph 71 % 0.0 in
14:32 15.1 °F 9.5 °F 1004.6 in South 12.9 mph 17.7 mph 69 % 0.0 in
14:37 15.0 °F 9.4 °F 1004.6 in South 8.0 mph 19.3 mph 69 % 0.0 in
14:42 15.0 °F 9.1 °F 1004.6 in South 12.9 mph 19.3 mph 68 % 0.0 in
14:47 15.0 °F 9.8 °F 1004.6 in SSW 12.9 mph 20.9 mph 71 % 0.0 in
14:52 14.9 °F 9.7 °F 1004.3 in SSW 4.8 mph 20.9 mph 71 % 0.0 in
14:57 14.9 °F 9.7 °F 1004.3 in SSW 6.4 mph 20.9 mph 71 % 0.0 in
15:02 14.9 °F 9.7 °F 1004.6 in SSW 16.1 mph 19.3 mph 71 % 0.0 in
15:07 14.7 °F 9.1 °F 1004.3 in SW 24.1 mph 27.4 mph 69 % 0.0 in
15:12 14.3 °F 9.3 °F 1004.3 in SSW 14.5 mph 27.4 mph 72 % 0.0 in
15:17 14.0 °F 9.4 °F 1004.3 in SSW 8.0 mph 27.4 mph 74 % 0.0 in
15:22 13.8 °F 9.2 °F 1004.3 in SSW 4.8 mph 25.7 mph 74 % 0.0 in
15:27 13.8 °F 9.4 °F 1004.3 in SSW 4.8 mph 22.5 mph 75 % 0.0 in
15:32 13.7 °F 9.7 °F 1004.3 in SSW 3.2 mph 17.7 mph 77 % 0.0 in
15:37 13.6 °F 9.6 °F 1004.3 in SSW 6.4 mph 12.9 mph 77 % 0.0 in
15:42 13.7 °F 9.5 °F 1004.3 in SE 6.4 mph 12.9 mph 76 % 0.0 in
15:47 13.8 °F 9.8 °F 1004.3 in SE 1.6 mph 8.0 mph 77 % 0.0 in
15:52 13.9 °F 9.9 °F 1004.3 in SSE 4.8 mph 8.0 mph 77 % 0.0 in
15:57 13.9 °F 9.7 °F 1004.3 in SSE 3.2 mph 9.7 mph 76 % 0.0 in
16:02 13.9 °F 9.7 °F 1004.3 in SSW 3.2 mph 9.7 mph 76 % 0.0 in
16:07 13.9 °F 9.9 °F 1004.3 in SSW 4.8 mph 9.7 mph 77 % 0.0 in
16:12 13.8 °F 9.8 °F 1004.3 in SSE 4.8 mph 9.7 mph 77 % 0.0 in
16:17 13.8 °F 9.8 °F 1004.3 in SSE 4.8 mph 11.3 mph 77 % 0.0 in
16:22 13.7 °F 9.7 °F 1004.3 in SSW 4.8 mph 11.3 mph 77 % 0.0 in
16:27 13.6 °F 9.8 °F 1004.3 in SSW 4.8 mph 11.3 mph 78 % 0.0 in
16:32 13.4 °F 9.6 °F 1004.3 in South 6.4 mph 11.3 mph 78 % 0.0 in
16:42 13.2 °F 9.6 °F 1004.3 in South 3.2 mph 8.0 mph 79 % 0.0 in
16:47 13.1 °F 9.5 °F 1004.3 in SSW 6.4 mph 9.7 mph 79 % 0.0 in
16:52 13.2 °F 9.3 °F 1004.3 in SSE 6.4 mph 12.9 mph 77 % 0.0 in
16:57 13.2 °F 9.3 °F 1004.6 in SSW 8.0 mph 19.3 mph 77 % 0.0 in
17:02 13.1 °F 9.4 °F 1004.6 in SE 8.0 mph 19.3 mph 78 % 0.0 in
17:07 13.0 °F 9.1 °F 1004.6 in South 8.0 mph 19.3 mph 77 % 0.0 in
17:12 13.0 °F 9.1 °F 1004.6 in SSE 9.7 mph 12.9 mph 77 % 0.0 in
17:17 12.9 °F 9.0 °F 1004.6 in SSE 3.2 mph 14.5 mph 77 % 0.0 in
17:22 12.8 °F 8.9 °F 1004.3 in SSE 3.2 mph 14.5 mph 77 % 0.0 in
17:27 12.8 °F 8.9 °F 1004.3 in ESE 3.2 mph 12.9 mph 77 % 0.0 in
17:32 12.7 °F 9.0 °F 1004.3 in SSE 3.2 mph 12.9 mph 78 % 0.0 in
17:37 12.6 °F 8.9 °F 1004.3 in SE 6.4 mph 12.9 mph 78 % 0.0 in
17:42 12.6 °F 8.9 °F 1004.3 in SE 3.2 mph 16.1 mph 78 % 0.0 in
17:47 12.6 °F 8.7 °F 1004.3 in SE 3.2 mph 16.1 mph 77 % 0.0 in
17:52 12.6 °F 8.7 °F 1004.3 in SSW 3.2 mph 16.1 mph 77 % 0.0 in
17:57 12.6 °F 8.9 °F 1004.3 in SE 3.2 mph 14.5 mph 78 % 0.0 in
18:02 12.5 °F 8.8 °F 1004.3 in South 3.2 mph 14.5 mph 78 % 0.0 in
18:07 12.4 °F 8.7 °F 1004.3 in South 3.2 mph 14.5 mph 78 % 0.0 in
18:12 12.4 °F 8.7 °F 1004.3 in ESE 3.2 mph 14.5 mph 78 % 0.0 in
18:17 12.3 °F 8.6 °F 1004.3 in South 3.2 mph 11.3 mph 78 % 0.0 in
18:27 12.3 °F 8.8 °F 1004.6 in South 6.4 mph 14.5 mph 79 % 0.0 in
18:32 12.3 °F 8.8 °F 1004.6 in South 14.5 mph 14.5 mph 79 % 0.0 in
18:37 12.3 °F 8.8 °F 1005.0 in SSW 12.9 mph 24.1 mph 79 % 0.0 in
18:42 12.3 °F 8.8 °F 1005.0 in SSW 11.3 mph 25.7 mph 79 % 0.0 in
18:47 12.3 °F 8.8 °F 1005.0 in SSW 12.9 mph 25.7 mph 79 % 0.0 in
18:52 12.2 °F 8.9 °F 1005.0 in SSW 12.9 mph 25.7 mph 80 % 0.0 in
18:57 11.9 °F 8.9 °F 1005.0 in SSW 12.9 mph 24.1 mph 82 % 0.0 in
19:02 11.7 °F 8.9 °F 1005.3 in SW 9.7 mph 22.5 mph 83 % 0.0 in
19:12 11.6 °F 9.2 °F 1005.0 in SW 14.5 mph 24.1 mph 85 % 0.0 in
19:17 11.7 °F 9.3 °F 1005.3 in WSW 8.0 mph 24.1 mph 85 % 0.0 in
19:22 11.6 °F 9.3 °F 1005.3 in SW 9.7 mph 20.9 mph 86 % 0.3 in
19:27 11.5 °F 9.4 °F 1005.0 in SSW 8.0 mph 19.3 mph 87 % 0.3 in
19:32 11.4 °F 9.3 °F 1005.0 in SW 3.2 mph 17.7 mph 87 % 0.3 in
19:37 11.3 °F 9.4 °F 1005.0 in SW 3.2 mph 14.5 mph 88 % 0.3 in
19:42 11.3 °F 9.4 °F 1005.0 in WSW 4.8 mph 14.5 mph 88 % 0.3 in
19:47 11.3 °F 9.4 °F 1005.0 in SW 8.0 mph 9.7 mph 88 % 0.3 in
19:52 11.2 °F 9.3 °F 1005.0 in SW 3.2 mph 9.7 mph 88 % 0.3 in
19:57 11.1 °F 9.4 °F 1005.0 in Calm   9.7 mph 89 % 0.3 in
20:02 11.1 °F 9.4 °F 1005.0 in Calm   9.7 mph 89 % 0.3 in
20:07 10.8 °F 9.1 °F 1005.0 in Calm   4.8 mph 89 % 0.3 in
20:12 10.7 °F 9.1 °F 1005.0 in SSE 1.6 mph 3.2 mph 90 % 0.3 in
20:17 10.6 °F 9.0 °F 1005.0 in SSE 1.6 mph 3.2 mph 90 % 0.3 in
20:22 10.6 °F 9.2 °F 1005.0 in Calm   3.2 mph 91 % 0.0 in
20:27 10.4 °F 9.0 °F 1005.3 in SSW 1.6 mph 1.6 mph 91 % 0.0 in
20:32 10.3 °F 9.1 °F 1005.3 in South 3.2 mph 3.2 mph 92 % 0.0 in
20:37 10.4 °F 9.0 °F 1005.3 in SW 4.8 mph 9.7 mph 91 % 0.5 in
20:42 10.6 °F 9.2 °F 1005.6 in SSW 12.9 mph 19.3 mph 91 % 0.5 in
20:47 10.7 °F 9.3 °F 1005.6 in SW 19.3 mph 19.3 mph 91 % 0.8 in
20:52 10.8 °F 9.4 °F 1005.6 in SW 6.4 mph 24.1 mph 91 % 0.8 in
20:57 10.7 °F 9.1 °F 1005.6 in WSW 16.1 mph 24.1 mph 90 % 0.8 in
21:02 10.7 °F 9.1 °F 1005.6 in SW 11.3 mph 24.1 mph 90 % 0.8 in
21:07 10.6 °F 9.0 °F 1005.6 in SW 16.1 mph 20.9 mph 90 % 0.8 in
21:12 10.4 °F 8.8 °F 1005.6 in SW 14.5 mph 17.7 mph 90 % 0.8 in
21:17 10.3 °F 8.9 °F 1006.0 in SSW 12.9 mph 20.9 mph 91 % 0.8 in
21:22 10.2 °F 8.6 °F 1006.0 in SW 29.0 mph 33.8 mph 90 % 0.8 in
21:32 9.9 °F 8.3 °F 1006.3 in WSW 6.4 mph 33.8 mph 90 % 0.8 in
21:42 9.7 °F 8.3 °F 1006.3 in WSW 16.1 mph 33.8 mph 91 % 0.3 in
21:47 9.6 °F 8.2 °F 1006.3 in WSW 11.3 mph 27.4 mph 91 % 0.0 in
21:52 9.4 °F 8.2 °F 1006.3 in SW 16.1 mph 27.4 mph 92 % 0.3 in
21:57 9.3 °F 8.1 °F 1006.3 in WSW 12.9 mph 25.7 mph 92 % 0.3 in
22:02 9.2 °F 8.0 °F 1006.0 in SSW 4.8 mph 22.5 mph 92 % 0.5 in
22:07 9.1 °F 8.0 °F 1006.0 in SW 9.7 mph 22.5 mph 93 % 0.8 in
22:12 8.9 °F 7.8 °F 1006.3 in WSW 16.1 mph 19.3 mph 93 % 1.0 in
22:17 8.9 °F 7.8 °F 1006.7 in SW 8.0 mph 22.5 mph 93 % 1.0 in
22:22 8.8 °F 7.7 °F 1006.7 in SW 12.9 mph 22.5 mph 93 % 1.0 in
22:27 8.8 °F 7.7 °F 1007.0 in SW 14.5 mph 25.7 mph 93 % 1.0 in
22:32 8.8 °F 7.7 °F 1007.0 in WSW 11.3 mph 25.7 mph 93 % 1.3 in
22:37 8.7 °F 7.6 °F 1007.0 in SW 6.4 mph 25.7 mph 93 % 1.3 in
22:42 8.7 °F 7.8 °F 1007.0 in SW 12.9 mph 20.9 mph 94 % 1.3 in
22:47 8.6 °F 7.7 °F 1007.0 in SW 19.3 mph 20.9 mph 94 % 1.5 in
22:52 8.6 °F 7.5 °F 1007.0 in WSW 16.1 mph 20.9 mph 93 % 1.3 in
22:57 8.5 °F 7.4 °F 1007.0 in SW 11.3 mph 20.9 mph 93 % 1.0 in
23:02 8.4 °F 7.3 °F 1007.0 in SW 8.0 mph 20.9 mph 93 % 0.8 in
23:07 8.4 °F 7.3 °F 1007.0 in SW 12.9 mph 20.9 mph 93 % 0.5 in
23:12 8.3 °F 7.4 °F 1007.0 in WSW 14.5 mph 20.9 mph 94 % 0.5 in
23:17 8.3 °F 7.4 °F 1007.3 in SSW 11.3 mph 20.9 mph 94 % 0.5 in
23:22 8.2 °F 7.3 °F 1007.3 in SW 12.9 mph 20.9 mph 94 % 0.5 in
23:27 8.2 °F 7.3 °F 1007.3 in SSW 6.4 mph 19.3 mph 94 % 0.3 in
23:32 8.2 °F 7.3 °F 1007.3 in SW 11.3 mph 19.3 mph 94 % 0.3 in
23:37 8.1 °F 7.2 °F 1007.3 in SW 12.9 mph 20.9 mph 94 % 0.3 in
23:42 8.1 °F 7.2 °F 1007.3 in South 9.7 mph 20.9 mph 94 % 0.3 in
23:47 8.1 °F 7.2 °F 1007.3 in SSW 6.4 mph 19.3 mph 94 % 0.3 in
23:57 7.9 °F 7.0 °F 1007.3 in SW 6.4 mph 14.5 mph 94 % 0.3 in
Meteo18
Compliments of Weather Underground - 4 mb

Script developed by  Jim McMurry - jmcmurry@mwt.net Adapted for the template by  Wim van der Kuil - Leuven-Template.eu

You find our weather info also at:

European Weather Network

Weather Underground

Equipment we use:

Weather-station
Davis Vue

Weather-program
Meteobridge

Weather-server
Raspberry PI 2 B+

Provider
1 and 1

Davis Vue

Meteobridge

Raspberry PI 2 B+

1 and 1